FADY weather

De Aar Military Airport
De Aar, Northern Cape, South Africa

Public forecast

Using degrees Celsius for public forecast. Weather courtesy of forecast.io.

METAR (pilot weather report)

Retrieved 2019/08/21 06:39 UTC (0 seconds ago):

FADY 210639Z 16007KT CAVOK 11/M02 Q1032

TAF (pilot weather forecast)

Forecast is more than 12 hours old.

Closest forecast is Kimberley Airport, 118.6 nm (219.6 km) NNE. Retrieved 2018/10/29 07:06 UTC (10 months ago):

TAF TAF FAKM 290600Z 2907/2919 33015KT CAVOK TX38/2913Z TN28/2918Z